createdAt,value
2022-11-10T00:01:40.856Z,11.98
2022-11-10T00:04:30.774Z,12.26
2022-11-10T00:07:20.147Z,12.04
2022-11-10T00:10:11.540Z,11.95
2022-11-10T00:13:02.975Z,12.27
2022-11-10T00:16:09.906Z,12.33
2022-11-10T00:18:59.331Z,12.31
2022-11-10T00:21:48.917Z,12.34
2022-11-10T00:24:38.275Z,12.49
2022-11-10T00:27:27.553Z,12.67
2022-11-10T00:30:17.418Z,12.79
2022-11-10T00:33:07.015Z,13.12
2022-11-10T00:35:56.781Z,13.00
2022-11-10T00:38:51.008Z,11.46
2022-11-10T00:41:40.132Z,11.72
2022-11-10T00:44:29.308Z,12.16
2022-11-10T00:47:18.771Z,12.53
2022-11-10T00:50:09.788Z,12.68
2022-11-10T00:52:58.938Z,12.56
2022-11-10T00:55:48.927Z,12.76
2022-11-10T00:58:38.195Z,12.68
2022-11-10T01:01:28.227Z,12.73
2022-11-10T01:04:17.746Z,12.72
2022-11-10T01:07:07.474Z,12.74
2022-11-10T01:09:56.899Z,12.96
2022-11-10T01:12:47.135Z,12.91
2022-11-10T01:15:39.447Z,12.82
2022-11-10T01:18:28.909Z,12.62
2022-11-10T01:21:18.372Z,12.67
2022-11-10T01:24:08.100Z,12.93
2022-11-10T01:26:57.014Z,13.15
2022-11-10T01:29:46.999Z,13.08
2022-11-10T01:32:36.172Z,13.28
2022-11-10T01:35:25.252Z,13.04
2022-11-10T01:38:14.489Z,11.12
2022-11-10T01:41:04.664Z,11.06
2022-11-10T01:43:53.637Z,12.12
2022-11-10T01:46:43.095Z,12.67
2022-11-10T01:49:33.922Z,12.86
2022-11-10T01:52:23.486Z,13.09
2022-11-10T01:55:13.179Z,12.87
2022-11-10T01:58:02.845Z,13.14
2022-11-10T02:00:51.769Z,13.52
2022-11-10T02:03:44.247Z,11.87
2022-11-10T02:06:35.210Z,11.32
2022-11-10T02:09:24.759Z,12.39
2022-11-10T02:12:14.295Z,12.27
2022-11-10T02:15:03.991Z,12.28
2022-11-10T02:17:53.186Z,12.44
2022-11-10T02:20:45.691Z,12.41
2022-11-10T02:23:50.771Z,12.61
2022-11-10T02:26:42.510Z,12.82
2022-11-10T02:29:31.826Z,12.97
2022-11-10T02:32:21.498Z,13.13
2022-11-10T02:35:10.988Z,13.29
2022-11-10T02:38:00.083Z,12.98
2022-11-10T02:40:49.808Z,11.22
2022-11-10T02:43:40.213Z,10.45
2022-11-10T02:46:29.169Z,11.10
2022-11-10T02:49:19.439Z,11.67
2022-11-10T02:52:08.313Z,11.71
2022-11-10T02:54:57.990Z,11.88
2022-11-10T02:57:47.261Z,12.18
2022-11-10T03:00:37.604Z,12.37
2022-11-10T03:03:27.541Z,12.47
2022-11-10T03:06:16.907Z,12.61
2022-11-10T03:09:06.073Z,12.44
2022-11-10T03:11:55.644Z,11.17
2022-11-10T03:14:44.567Z,9.86
2022-11-10T03:17:34.280Z,10.46
2022-11-10T03:20:23.192Z,11.12
2022-11-10T03:23:12.896Z,11.58
2022-11-10T03:26:01.571Z,11.96
2022-11-10T03:28:50.955Z,12.16
2022-11-10T03:31:40.011Z,12.25
2022-11-10T03:34:31.800Z,12.23
2022-11-10T03:37:22.123Z,11.69
2022-11-10T03:40:13.309Z,10.00
2022-11-10T03:43:02.452Z,9.92
2022-11-10T03:45:51.667Z,10.99
2022-11-10T03:48:40.937Z,11.01
2022-11-10T03:51:30.202Z,11.14
2022-11-10T03:54:18.999Z,11.16
2022-11-10T03:57:08.636Z,11.28
2022-11-10T03:59:57.387Z,11.60
2022-11-10T04:02:47.373Z,12.18
2022-11-10T04:05:53.453Z,11.80
2022-11-10T04:09:00.647Z,10.67
2022-11-10T04:12:07.152Z,11.37
2022-11-10T04:15:14.384Z,11.76
2022-11-10T04:18:17.676Z,11.98
2022-11-10T04:21:07.260Z,12.01
2022-11-10T04:23:56.215Z,11.82
2022-11-10T04:26:47.697Z,11.88
2022-11-10T04:29:36.905Z,12.17
2022-11-10T04:32:26.517Z,12.59
2022-11-10T04:35:15.649Z,12.41
2022-11-10T04:38:05.484Z,12.57
2022-11-10T04:40:54.789Z,12.86
2022-11-10T04:43:44.466Z,13.15
2022-11-10T04:46:34.552Z,13.41
2022-11-10T04:49:24.844Z,13.62
2022-11-10T04:52:13.518Z,13.81
2022-11-10T04:55:02.700Z,13.95
2022-11-10T04:57:51.450Z,13.16
2022-11-10T05:00:42.435Z,11.71
2022-11-10T05:03:31.795Z,11.19
2022-11-10T05:06:21.789Z,12.24
2022-11-10T05:09:11.256Z,13.20
2022-11-10T05:12:00.630Z,13.38
2022-11-10T05:14:49.692Z,12.38
2022-11-10T05:17:39.039Z,11.10
2022-11-10T05:20:28.520Z,11.76
2022-11-10T05:23:35.716Z,12.71
2022-11-10T05:26:25.095Z,12.87
2022-11-10T05:29:14.493Z,12.93
2022-11-10T05:32:03.416Z,12.87
2022-11-10T05:34:52.793Z,13.36
2022-11-10T05:55:24.105Z,12.80
2022-11-10T05:58:13.124Z,13.02
2022-11-10T06:01:02.281Z,13.26
2022-11-10T06:03:51.102Z,13.60
2022-11-10T06:06:40.257Z,13.77
2022-11-10T06:09:29.464Z,13.54
2022-11-10T06:12:19.058Z,13.58
2022-11-10T06:15:10.368Z,13.78
2022-11-10T06:18:00.134Z,14.15
2022-11-10T06:20:49.410Z,13.91
2022-11-10T06:23:38.767Z,12.50
2022-11-10T06:26:27.939Z,12.76
2022-11-10T06:29:18.661Z,13.99
2022-11-10T06:32:11.297Z,14.41
2022-11-10T06:35:00.804Z,13.11
2022-11-10T06:37:59.044Z,12.95
2022-11-10T06:40:48.198Z,13.69
2022-11-10T06:43:37.265Z,14.18
2022-11-10T06:46:27.258Z,13.83
2022-11-10T06:49:16.512Z,13.03
2022-11-10T06:52:06.597Z,13.76
2022-11-10T06:54:56.181Z,14.27
2022-11-10T06:57:45.753Z,14.54
2022-11-10T07:00:34.916Z,13.03
2022-11-10T07:03:24.784Z,13.38
2022-11-10T07:06:14.372Z,14.01
2022-11-10T07:09:04.119Z,14.81
2022-11-10T07:11:53.519Z,13.23
2022-11-10T07:14:43.298Z,13.33
2022-11-10T07:17:32.691Z,14.29
2022-11-10T07:20:22.958Z,13.72
2022-11-10T07:23:12.330Z,13.25
2022-11-10T07:26:01.864Z,14.07
2022-11-10T07:28:51.169Z,14.65
2022-11-10T07:31:40.751Z,13.25
2022-11-10T07:34:30.228Z,13.27
2022-11-10T07:37:19.386Z,14.15
2022-11-10T07:40:10.349Z,14.26
2022-11-10T07:42:59.729Z,14.38
2022-11-10T07:45:50.164Z,14.71
2022-11-10T07:48:40.245Z,14.62
2022-11-10T07:51:30.891Z,14.47
2022-11-10T07:54:20.418Z,14.85
2022-11-10T07:57:10.104Z,14.35
2022-11-10T07:59:59.864Z,13.46
2022-11-10T08:02:49.043Z,14.27
2022-11-10T08:05:38.969Z,14.70
2022-11-10T08:08:28.497Z,14.73
2022-11-10T08:11:17.865Z,14.36
2022-11-10T08:14:07.282Z,14.53
2022-11-10T08:16:56.443Z,14.46
2022-11-10T08:19:45.400Z,15.54
2022-11-10T08:22:35.342Z,14.97
2022-11-10T08:25:24.614Z,13.56
2022-11-10T08:28:15.861Z,14.29
2022-11-10T08:31:06.237Z,14.05
2022-11-10T08:33:56.344Z,14.07
2022-11-10T08:36:45.612Z,15.21
2022-11-10T08:39:39.378Z,15.29
2022-11-10T08:42:29.019Z,15.58
2022-11-10T08:45:18.715Z,14.36
2022-11-10T08:48:09.410Z,14.19
2022-11-10T08:51:00.685Z,14.92
2022-11-10T08:53:50.086Z,15.21
2022-11-10T08:56:40.728Z,15.57
2022-11-10T08:59:30.053Z,15.50
2022-11-10T09:02:20.346Z,15.79
2022-11-10T09:05:10.218Z,15.61
2022-11-10T09:07:59.193Z,15.06
2022-11-10T09:10:50.507Z,14.94
2022-11-10T09:13:40.054Z,15.66
2022-11-10T09:16:29.244Z,15.27
2022-11-10T09:19:20.269Z,15.52
2022-11-10T09:22:12.934Z,15.54
2022-11-10T09:25:02.323Z,15.81
2022-11-10T09:27:51.821Z,15.50
2022-11-10T09:30:41.319Z,15.13
2022-11-10T09:33:30.290Z,15.33
2022-11-10T09:36:19.669Z,15.73
2022-11-10T09:39:08.793Z,15.76
2022-11-10T09:41:58.632Z,16.49
2022-11-10T09:44:52.267Z,14.95
2022-11-10T09:47:57.197Z,15.19
2022-11-10T09:50:49.026Z,16.29
2022-11-10T09:53:39.332Z,16.14
2022-11-10T09:56:32.309Z,16.01
2022-11-10T09:59:26.858Z,16.79
2022-11-10T10:02:20.838Z,15.60
2022-11-10T10:05:08.364Z,16.04
2022-11-10T10:08:02.018Z,16.23
2022-11-10T10:10:55.561Z,16.98
2022-11-10T10:13:51.738Z,15.74
2022-11-10T10:16:44.061Z,15.36
2022-11-10T10:19:36.813Z,16.51
2022-11-10T10:22:37.354Z,16.49
2022-11-10T10:25:28.057Z,16.84
2022-11-10T10:28:21.525Z,16.55
2022-11-10T10:31:14.913Z,16.68
2022-11-10T10:34:05.408Z,16.87
2022-11-10T10:36:54.778Z,17.26
2022-11-10T10:39:45.732Z,16.82
2022-11-10T10:42:36.980Z,16.65
2022-11-10T10:45:27.624Z,16.81
2022-11-10T10:48:27.079Z,16.68
2022-11-10T10:51:30.283Z,16.83
2022-11-10T10:54:19.128Z,17.09
2022-11-10T10:57:20.642Z,17.88
2022-11-10T11:00:19.983Z,15.92
2022-11-10T11:03:14.380Z,16.00
2022-11-10T11:06:08.254Z,17.32
2022-11-10T11:09:10.363Z,17.09
2022-11-10T11:12:03.155Z,16.15
2022-11-10T11:14:54.385Z,16.59
2022-11-10T11:17:54.815Z,16.95
2022-11-10T11:20:47.881Z,16.63
2022-11-10T11:23:42.280Z,17.44
2022-11-10T11:26:36.667Z,17.40
2022-11-10T11:29:38.199Z,17.88
2022-11-10T11:32:32.408Z,17.68
2022-11-10T11:35:26.316Z,17.37
2022-11-10T11:38:16.583Z,17.30
2022-11-10T11:41:13.289Z,17.25
2022-11-10T11:44:20.271Z,17.40
2022-11-10T11:47:20.707Z,17.66
2022-11-10T11:50:16.034Z,17.37
2022-11-10T11:53:16.439Z,17.57
2022-11-10T11:56:17.016Z,16.85
2022-11-10T11:59:15.130Z,17.50
2022-11-10T12:02:14.562Z,17.77
2022-11-10T12:05:10.582Z,17.61
2022-11-10T12:08:03.429Z,17.68
2022-11-10T12:10:59.541Z,17.25
2022-11-10T12:13:55.251Z,17.91
2022-11-10T12:16:48.745Z,17.96
2022-11-10T12:19:40.881Z,17.73
2022-11-10T12:22:35.624Z,18.09
2022-11-10T12:25:27.705Z,18.16
2022-11-10T12:28:18.801Z,17.63
2022-11-10T12:31:13.159Z,18.17
2022-11-10T12:34:05.648Z,17.12
2022-11-10T12:36:55.203Z,16.34
2022-11-10T12:39:49.244Z,17.66
2022-11-10T12:42:39.239Z,17.87
2022-11-10T12:45:32.233Z,17.93
2022-11-10T12:48:22.615Z,17.85
2022-11-10T12:51:15.830Z,16.62
2022-11-10T12:54:05.416Z,17.16
2022-11-10T12:56:55.931Z,17.87
2022-11-10T12:59:51.125Z,18.13
2022-11-10T13:02:41.731Z,18.11
2022-11-10T13:05:37.432Z,18.10
2022-11-10T13:08:28.102Z,16.78
2022-11-10T13:11:25.713Z,17.25
2022-11-10T13:14:25.982Z,17.56
2022-11-10T13:17:28.664Z,17.81
2022-11-10T13:20:35.600Z,17.99
2022-11-10T13:23:28.661Z,16.51
2022-11-10T13:26:46.541Z,17.13
2022-11-10T13:29:37.429Z,17.50
2022-11-10T13:32:30.960Z,17.42
2022-11-10T13:35:37.584Z,17.84
2022-11-10T13:38:37.731Z,16.43
2022-11-10T13:41:27.994Z,16.79
2022-11-10T13:44:23.511Z,17.78
2022-11-10T13:47:35.450Z,18.04
2022-11-10T13:50:34.948Z,18.55
2022-11-10T13:53:31.837Z,17.07
2022-11-10T13:56:24.718Z,17.12
2022-11-10T13:59:21.406Z,17.97
2022-11-10T14:02:28.043Z,18.48
2022-11-10T14:05:46.395Z,16.66
2022-11-10T14:08:44.664Z,17.04
2022-11-10T14:11:36.567Z,17.91
2022-11-10T14:14:27.144Z,16.58
2022-11-10T14:17:19.186Z,16.68
2022-11-10T14:20:21.286Z,17.55
2022-11-10T14:23:17.798Z,17.97
2022-11-10T14:26:13.860Z,16.49
2022-11-10T14:29:17.248Z,17.19
2022-11-10T14:32:07.531Z,17.85
2022-11-10T14:34:58.211Z,16.86
2022-11-10T14:37:47.205Z,16.74
2022-11-10T14:40:43.021Z,17.37
2022-11-10T14:43:33.115Z,17.76
2022-11-10T14:46:24.951Z,16.33
2022-11-10T14:49:14.518Z,16.62
2022-11-10T14:52:04.448Z,17.11
2022-11-10T14:54:53.560Z,17.56
2022-11-10T14:57:43.031Z,17.28
2022-11-10T15:00:37.851Z,16.11
2022-11-10T15:03:36.705Z,16.94
2022-11-10T15:06:26.398Z,17.25
2022-11-10T15:09:16.589Z,17.64
2022-11-10T15:12:20.036Z,16.17
2022-11-10T15:15:23.134Z,16.43
2022-11-10T15:18:26.483Z,16.87
2022-11-10T15:21:17.618Z,17.33
2022-11-10T15:24:07.068Z,17.37
2022-11-10T15:26:57.155Z,16.09
2022-11-10T15:29:46.725Z,16.61
2022-11-10T15:32:37.727Z,17.26
2022-11-10T15:35:29.661Z,17.47
2022-11-10T15:38:30.478Z,16.46
2022-11-10T15:41:27.136Z,16.22
2022-11-10T15:44:18.503Z,16.83
2022-11-10T15:47:08.033Z,17.41
2022-11-10T15:49:57.796Z,16.21
2022-11-10T15:52:46.936Z,16.03
2022-11-10T15:55:36.450Z,16.99
2022-11-10T15:58:26.088Z,16.41
2022-11-10T16:01:16.774Z,15.92
2022-11-10T16:04:06.498Z,16.68
2022-11-10T16:06:57.394Z,17.15
2022-11-10T16:09:46.780Z,16.26
2022-11-10T16:12:37.177Z,15.41
2022-11-10T16:15:26.544Z,16.25
2022-11-10T16:18:16.491Z,17.12
2022-11-10T16:21:06.250Z,16.35
2022-11-10T16:23:55.715Z,15.52
2022-11-10T16:26:44.538Z,16.47
2022-11-10T16:29:34.628Z,17.14
2022-11-10T16:32:31.228Z,15.66
2022-11-10T16:35:33.099Z,16.07
2022-11-10T16:38:27.202Z,17.01
2022-11-10T16:41:16.582Z,15.63
2022-11-10T16:44:06.576Z,15.98
2022-11-10T16:46:57.586Z,16.54
2022-11-10T16:49:47.347Z,16.73
2022-11-10T16:52:36.822Z,16.64
2022-11-10T16:55:26.089Z,16.91
2022-11-10T16:58:15.493Z,16.67
2022-11-10T17:01:05.448Z,15.47
2022-11-10T17:03:56.537Z,15.80
2022-11-10T17:06:45.448Z,16.52
2022-11-10T17:09:34.880Z,16.93
2022-11-10T17:12:24.014Z,16.48
2022-11-10T17:15:15.461Z,14.99
2022-11-10T17:18:05.669Z,15.52
2022-11-10T17:20:55.814Z,16.22
2022-11-10T17:23:44.828Z,16.69
2022-11-10T17:26:35.147Z,16.83
2022-11-10T17:29:24.770Z,16.38
2022-11-10T17:32:14.039Z,15.22
2022-11-10T17:35:03.205Z,15.72
2022-11-10T17:37:55.146Z,16.24
2022-11-10T17:40:44.504Z,16.54
2022-11-10T17:43:33.771Z,16.73
2022-11-10T17:46:22.898Z,15.32
2022-11-10T17:49:12.307Z,15.36
2022-11-10T17:52:01.880Z,15.84
2022-11-10T17:54:51.562Z,16.43
2022-11-10T17:57:41.072Z,16.07
2022-11-10T18:00:31.035Z,16.67
2022-11-10T18:03:22.324Z,15.46
2022-11-10T18:06:14.038Z,14.86
2022-11-10T18:09:03.121Z,15.80
2022-11-10T18:11:53.105Z,16.12
2022-11-10T18:14:42.283Z,16.47
2022-11-10T18:17:32.209Z,15.08
2022-11-10T18:20:21.544Z,15.09
2022-11-10T18:23:13.043Z,15.72
2022-11-10T18:26:05.589Z,16.23
2022-11-10T18:28:55.163Z,16.39
2022-11-10T18:31:44.529Z,16.36
2022-11-10T18:34:34.058Z,15.90
2022-11-10T18:37:22.958Z,14.45
2022-11-10T18:40:13.581Z,14.98
2022-11-10T18:43:07.219Z,15.46
2022-11-10T18:45:57.316Z,15.65
2022-11-10T18:48:47.428Z,15.84
2022-11-10T18:51:37.314Z,16.14
2022-11-10T18:54:26.967Z,16.40
2022-11-10T18:57:16.846Z,15.03
2022-11-10T19:00:07.439Z,15.26
2022-11-10T19:02:57.387Z,16.03
2022-11-10T19:05:54.379Z,16.11
2022-11-10T19:08:48.945Z,14.48
2022-11-10T19:11:37.719Z,14.93
2022-11-10T19:14:26.893Z,15.60
2022-11-10T19:17:15.957Z,15.81
2022-11-10T19:20:06.277Z,15.76
2022-11-10T19:22:55.204Z,15.95
2022-11-10T19:25:44.780Z,16.06
2022-11-10T19:28:34.251Z,16.08
2022-11-10T19:31:24.677Z,15.99
2022-11-10T19:34:13.911Z,16.26
2022-11-10T19:37:03.282Z,15.47
2022-11-10T19:39:52.366Z,14.30
2022-11-10T19:42:41.951Z,14.86
2022-11-10T19:45:31.108Z,15.35
2022-11-10T19:48:21.225Z,15.81
2022-11-10T19:51:12.872Z,15.67
2022-11-10T19:54:03.193Z,15.65
2022-11-10T19:56:52.459Z,15.56
2022-11-10T19:59:42.039Z,15.59
2022-11-10T20:02:30.815Z,15.65
2022-11-10T20:05:20.868Z,15.71
2022-11-10T20:15:29.342Z,15.72
2022-11-10T20:18:19.039Z,14.28
2022-11-10T20:21:09.378Z,13.60
2022-11-10T20:23:58.574Z,14.43
2022-11-10T20:26:50.640Z,15.10
2022-11-10T20:29:39.664Z,15.46
2022-11-10T20:32:29.484Z,15.65
2022-11-10T20:35:21.064Z,15.84
2022-11-10T20:38:11.565Z,15.89
2022-11-10T20:41:05.334Z,14.70
2022-11-10T20:43:55.285Z,13.66
2022-11-10T20:46:59.657Z,14.40
2022-11-10T20:49:49.010Z,15.09
2022-11-10T20:52:38.380Z,15.58
2022-11-10T20:55:52.044Z,15.50
2022-11-10T20:58:36.880Z,13.83
2022-11-10T21:01:26.098Z,14.15
2022-11-10T21:04:15.320Z,14.93
2022-11-10T21:07:04.717Z,15.12
2022-11-10T21:09:54.077Z,15.04
2022-11-10T21:12:53.354Z,15.09
2022-11-10T21:15:42.598Z,15.43
2022-11-10T21:18:32.818Z,15.35
2022-11-10T21:21:23.058Z,15.10
2022-11-10T21:24:12.811Z,13.59
2022-11-10T21:27:02.465Z,13.84
2022-11-10T21:29:52.240Z,14.28
2022-11-10T21:32:42.280Z,14.64
2022-11-10T21:35:37.755Z,15.26
2022-11-10T21:38:27.329Z,15.23
2022-11-10T21:41:16.894Z,13.47
2022-11-10T21:44:06.769Z,13.93
2022-11-10T21:46:56.290Z,14.94
2022-11-10T21:49:46.130Z,14.80
2022-11-10T21:52:35.400Z,15.10
2022-11-10T21:55:24.965Z,15.37
2022-11-10T21:58:14.482Z,13.78
2022-11-10T22:01:03.825Z,13.61
2022-11-10T22:03:53.823Z,14.46
2022-11-10T22:07:00.707Z,14.76
2022-11-10T22:10:08.324Z,14.48
2022-11-10T22:13:14.745Z,13.45
2022-11-10T22:16:21.890Z,14.18
2022-11-10T22:19:11.192Z,14.70
2022-11-10T22:22:03.652Z,14.99
2022-11-10T22:24:54.233Z,14.86
2022-11-10T22:27:43.604Z,13.38
2022-11-10T22:30:32.981Z,13.65
2022-11-10T22:33:30.906Z,14.32
2022-11-10T22:36:21.863Z,14.69
2022-11-10T22:39:11.631Z,14.89
2022-11-10T22:42:19.120Z,14.89
2022-11-10T22:45:09.443Z,13.18
2022-11-10T22:48:15.794Z,12.79
2022-11-10T22:51:05.687Z,13.55
2022-11-10T22:53:54.628Z,14.11
2022-11-10T22:56:44.064Z,14.22
2022-11-10T22:59:33.059Z,14.30
2022-11-10T23:02:22.271Z,14.57
2022-11-10T23:05:11.872Z,14.70
2022-11-10T23:08:01.186Z,13.33
2022-11-10T23:10:50.647Z,13.27
2022-11-10T23:13:40.378Z,13.57
2022-11-10T23:16:31.353Z,13.89
2022-11-10T23:19:20.906Z,14.13
2022-11-10T23:22:10.276Z,14.30
2022-11-10T23:25:00.197Z,14.55
2022-11-10T23:27:49.429Z,14.79
2022-11-10T23:30:39.149Z,14.50
2022-11-10T23:33:32.488Z,13.08
2022-11-10T23:36:21.113Z,12.30
2022-11-10T23:39:10.689Z,13.16
2022-11-10T23:41:59.964Z,13.94
2022-11-10T23:44:49.450Z,14.35
2022-11-10T23:47:38.540Z,14.54
2022-11-10T23:50:28.271Z,14.36
2022-11-10T23:53:18.159Z,12.95
2022-11-10T23:56:08.901Z,12.42
2022-11-10T23:58:58.057Z,13.15
